createdAt,value
2022-09-27T00:01:55.783Z,98529.56
2022-09-27T00:04:24.189Z,98538.94
2022-09-27T00:06:52.934Z,98536.78
2022-09-27T00:09:29.287Z,98530.59
2022-09-27T00:11:58.755Z,98542.78
2022-09-27T00:14:26.950Z,98550.63
2022-09-27T00:17:30.312Z,98571.63
2022-09-27T00:19:56.195Z,98576.59
2022-09-27T00:22:24.483Z,98580.97
2022-09-27T00:24:52.562Z,98594.78
2022-09-27T00:27:21.224Z,98611.09
2022-09-27T00:29:49.592Z,98614.34
2022-09-27T00:32:18.979Z,98648.84
2022-09-27T00:34:47.329Z,98649.25
2022-09-27T00:37:15.361Z,98631.66
2022-09-27T00:39:43.326Z,98603.38
2022-09-27T00:42:12.285Z,98551.31
2022-09-27T00:45:12.894Z,98548.34
2022-09-27T00:47:50.590Z,98591.19
2022-09-27T00:50:27.647Z,98631.97
2022-09-27T00:53:05.314Z,98703.19
2022-09-27T00:55:37.793Z,98776.69
2022-09-27T00:58:07.066Z,98815.41
2022-09-27T01:00:35.495Z,98863.97
2022-09-27T01:03:08.534Z,98831.19
2022-09-27T01:05:36.567Z,98845.09
2022-09-27T01:08:05.515Z,98858.00
2022-09-27T01:10:42.088Z,98846.38
2022-09-27T01:13:20.303Z,98848.38
2022-09-27T01:15:58.931Z,98852.63
2022-09-27T01:18:35.738Z,98827.09
2022-09-27T01:21:40.907Z,98814.84
2022-09-27T01:24:53.618Z,98805.06
2022-09-27T01:28:01.350Z,98813.44
2022-09-27T01:30:39.603Z,98818.00
2022-09-27T01:33:20.235Z,98806.94
2022-09-27T01:36:00.246Z,98758.22
2022-09-27T01:38:35.672Z,98696.91
2022-09-27T01:41:10.699Z,98666.44
2022-09-27T01:44:03.790Z,98652.53
2022-09-27T01:46:41.786Z,98676.34
2022-09-27T01:49:37.161Z,98648.00
2022-09-27T01:52:09.655Z,98639.16
2022-09-27T01:54:44.894Z,98622.44
2022-09-27T01:57:40.642Z,98602.16
2022-09-27T02:00:17.376Z,98587.28
2022-09-27T02:02:55.713Z,98557.19
2022-09-27T02:05:44.954Z,98556.59
2022-09-27T02:08:50.421Z,98543.28
2022-09-27T02:11:28.763Z,98536.03
2022-09-27T02:14:16.826Z,98541.13
2022-09-27T02:17:05.095Z,98530.06
2022-09-27T02:19:42.129Z,98447.38
2022-09-27T02:22:18.308Z,98408.41
2022-09-27T02:24:50.944Z,98373.00
2022-09-27T02:27:25.798Z,98351.59
2022-09-27T02:30:02.316Z,98284.25
2022-09-27T02:32:33.646Z,98253.97
2022-09-27T02:35:14.004Z,98188.34
2022-09-27T02:37:47.347Z,98142.00
2022-09-27T02:40:17.055Z,98105.09
2022-09-27T02:42:48.352Z,98062.97
2022-09-27T02:45:20.920Z,97967.66
2022-09-27T02:48:07.450Z,97897.09
2022-09-27T02:51:25.211Z,97795.13
2022-09-27T02:54:10.426Z,97708.84
2022-09-27T02:57:08.975Z,97693.34
2022-09-27T02:59:54.450Z,97728.00
2022-09-27T03:02:37.241Z,97736.75
2022-09-27T03:05:43.631Z,97717.19
2022-09-27T03:08:16.111Z,97729.19
2022-09-27T03:10:44.622Z,97729.00
2022-09-27T03:13:13.370Z,97687.44
2022-09-27T03:15:42.098Z,97649.53
2022-09-27T03:18:30.102Z,97673.41
2022-09-27T03:21:16.858Z,97719.59
2022-09-27T03:23:46.358Z,97749.03
2022-09-27T03:26:14.522Z,97759.50
2022-09-27T03:28:42.602Z,97714.38
2022-09-27T03:31:10.789Z,97669.38
2022-09-27T03:33:58.733Z,97644.78
2022-09-27T03:36:27.449Z,97656.59
2022-09-27T03:38:56.790Z,97697.66
2022-09-27T03:41:24.776Z,97715.00
2022-09-27T03:43:53.163Z,97694.28
2022-09-27T03:46:21.568Z,97684.19
2022-09-27T03:48:49.722Z,97648.50
2022-09-27T03:51:17.791Z,97624.41
2022-09-27T03:53:45.834Z,97611.13
2022-09-27T03:56:15.763Z,97572.91
2022-09-27T03:58:43.828Z,97579.16
2022-09-27T04:01:16.073Z,97553.56
2022-09-27T04:03:46.555Z,97523.94
2022-09-27T04:06:30.757Z,97487.22
2022-09-27T04:08:59.151Z,97414.22
2022-09-27T04:11:39.810Z,97394.03
2022-09-27T04:14:08.917Z,97422.66
2022-09-27T04:16:47.416Z,97452.25
2022-09-27T04:19:28.742Z,97420.13
2022-09-27T04:22:10.871Z,97436.25
2022-09-27T04:24:39.349Z,97451.94
2022-09-27T04:27:28.680Z,97480.88
2022-09-27T04:29:57.056Z,97517.53
2022-09-27T04:32:45.822Z,97559.72
2022-09-27T04:35:49.800Z,97560.28
2022-09-27T04:38:20.270Z,97542.44
2022-09-27T04:40:49.184Z,97520.22
2022-09-27T04:43:19.161Z,97524.09
2022-09-27T04:45:47.717Z,97514.31
2022-09-27T04:48:15.901Z,97497.00
2022-09-27T04:50:44.104Z,97457.97
2022-09-27T04:53:15.125Z,97430.88
2022-09-27T04:55:47.397Z,97422.31
2022-09-27T04:58:15.686Z,97386.31
2022-09-27T05:00:45.644Z,97361.28
2022-09-27T05:03:37.226Z,97388.03
2022-09-27T05:06:13.616Z,97358.72
2022-09-27T05:08:42.945Z,97309.28
2022-09-27T05:11:19.836Z,97285.06
2022-09-27T05:14:22.909Z,97211.75
2022-09-27T05:17:10.558Z,97111.72
2022-09-27T05:20:03.505Z,96996.22
2022-09-27T05:22:45.133Z,96937.75
2022-09-27T05:25:13.911Z,96907.72
2022-09-27T05:27:42.040Z,96857.97
2022-09-27T05:30:12.185Z,96771.16
2022-09-27T05:32:53.885Z,96653.16
2022-09-27T05:35:28.048Z,96581.16
2022-09-27T05:38:01.570Z,96509.22
2022-09-27T05:40:47.870Z,96449.53
2022-09-27T05:43:17.155Z,96373.75
2022-09-27T05:45:46.299Z,96320.41
2022-09-27T05:48:18.176Z,96246.34
2022-09-27T05:50:55.089Z,96167.06
2022-09-27T05:53:24.103Z,96085.31
2022-09-27T05:55:52.288Z,95994.66
2022-09-27T05:58:28.439Z,95904.09
2022-09-27T06:01:11.179Z,95788.03
2022-09-27T06:04:01.868Z,95697.22
2022-09-27T06:06:58.982Z,95625.22
2022-09-27T06:09:28.156Z,95574.78
2022-09-27T06:11:57.201Z,95559.50
2022-09-27T06:14:27.104Z,95530.25
2022-09-27T06:17:06.894Z,95506.84
2022-09-27T06:19:38.369Z,95469.09
2022-09-27T06:22:06.417Z,95437.41
2022-09-27T06:24:42.776Z,95430.94
2022-09-27T06:27:19.234Z,95444.81
2022-09-27T06:30:16.952Z,95449.75
2022-09-27T06:32:57.176Z,95475.47
2022-09-27T06:35:36.682Z,95477.47
2022-09-27T06:38:07.424Z,95477.25
2022-09-27T06:40:37.667Z,95483.66
2022-09-27T06:43:19.809Z,95479.25
2022-09-27T06:46:06.738Z,95476.31
2022-09-27T06:48:53.693Z,95464.56
2022-09-27T06:51:23.165Z,95442.19
2022-09-27T06:53:51.355Z,95423.84
2022-09-27T06:56:20.067Z,95428.09
2022-09-27T06:59:12.328Z,95419.03
2022-09-27T07:01:44.027Z,95409.19
2022-09-27T07:04:22.768Z,95401.97
2022-09-27T07:07:00.476Z,95417.72
2022-09-27T07:09:33.355Z,95431.88
2022-09-27T07:12:05.701Z,95449.03
2022-09-27T07:14:35.401Z,95441.75
2022-09-27T07:17:05.041Z,95426.56
2022-09-27T07:19:40.754Z,95429.19
2022-09-27T07:22:11.832Z,95432.38
2022-09-27T07:24:41.500Z,95448.72
2022-09-27T07:27:10.181Z,95451.66
2022-09-27T07:29:38.394Z,95448.84
2022-09-27T07:32:06.556Z,95442.22
2022-09-27T07:34:35.257Z,95461.56
2022-09-27T07:37:05.713Z,95474.66
2022-09-27T07:39:40.049Z,95481.94
2022-09-27T07:42:08.645Z,95480.38
2022-09-27T07:45:12.745Z,95478.09
2022-09-27T07:48:18.563Z,95486.63
2022-09-27T07:51:32.480Z,95471.31
2022-09-27T07:54:31.093Z,95464.25
2022-09-27T07:57:55.044Z,95474.00
2022-09-27T08:00:29.591Z,95471.31
2022-09-27T08:03:01.618Z,95500.59
2022-09-27T08:05:37.028Z,95466.88
2022-09-27T08:08:19.359Z,95483.47
2022-09-27T08:10:52.214Z,95483.78
2022-09-27T08:13:46.412Z,95528.81
2022-09-27T08:16:19.893Z,95554.09
2022-09-27T08:19:11.635Z,95567.69
2022-09-27T08:21:47.999Z,95573.47
2022-09-27T08:24:36.678Z,95578.03
2022-09-27T08:27:16.495Z,95593.41
2022-09-27T08:29:51.417Z,95581.03
2022-09-27T08:32:23.307Z,95586.84
2022-09-27T08:34:55.676Z,95614.41
2022-09-27T08:37:24.604Z,95620.63
2022-09-27T08:43:12.462Z,95637.38
2022-09-27T08:46:07.005Z,95652.13
2022-09-27T08:48:42.065Z,95676.31
2022-09-27T08:51:54.024Z,95645.56
2022-09-27T08:54:56.433Z,95660.09
2022-09-27T08:57:40.575Z,95671.09
2022-09-27T09:00:14.053Z,95690.44
2022-09-27T09:02:45.419Z,95665.13
2022-09-27T09:05:22.154Z,95665.94
2022-09-27T09:08:10.861Z,95638.72
2022-09-27T09:11:19.987Z,95625.72
2022-09-27T09:14:27.347Z,95625.09
2022-09-27T09:17:05.907Z,95609.13
2022-09-27T09:20:05.126Z,95604.94
2022-09-27T09:23:34.467Z,95590.84
2022-09-27T09:27:45.571Z,95590.66
2022-09-27T09:31:12.942Z,95541.06
2022-09-27T09:34:21.334Z,95525.25
2022-09-27T09:37:02.431Z,95515.66
2022-09-27T09:39:37.917Z,95528.38
2022-09-27T09:43:21.188Z,95523.16
2022-09-27T09:45:56.453Z,95524.06
2022-09-27T09:48:31.351Z,95522.84
2022-09-27T09:51:03.461Z,95518.44
2022-09-27T09:53:41.706Z,95512.19
2022-09-27T09:56:18.949Z,95506.09
2022-09-27T09:58:53.028Z,95507.28
2022-09-27T10:01:28.758Z,95491.59
2022-09-27T10:03:57.518Z,95511.72
2022-09-27T10:06:27.733Z,95509.03
2022-09-27T10:08:58.624Z,95505.25
2022-09-27T10:11:42.742Z,95501.53
2022-09-27T10:14:17.157Z,95494.81
2022-09-27T10:16:49.025Z,95496.81
2022-09-27T10:19:26.427Z,95488.16
2022-09-27T10:21:58.025Z,95486.44
2022-09-27T10:24:28.468Z,95508.06
2022-09-27T10:27:06.981Z,95482.53
2022-09-27T10:29:39.855Z,95490.50
2022-09-27T10:32:27.316Z,95469.16
2022-09-27T10:35:36.908Z,95474.63
2022-09-27T10:38:22.268Z,95441.91
2022-09-27T10:40:59.177Z,95455.13
2022-09-27T10:43:31.550Z,95486.72
2022-09-27T10:46:23.394Z,95495.56
2022-09-27T10:49:12.940Z,95507.38
2022-09-27T10:51:41.880Z,95549.66
2022-09-27T10:54:22.374Z,95599.44
2022-09-27T10:57:06.388Z,95599.81
2022-09-27T10:59:40.822Z,95622.44
2022-09-27T11:02:21.307Z,95639.53
2022-09-27T11:05:15.354Z,95640.13
2022-09-27T11:07:53.434Z,95648.81
2022-09-27T11:10:28.876Z,95642.53
2022-09-27T11:13:12.892Z,95645.34
2022-09-27T11:15:59.643Z,95640.78
2022-09-27T11:18:35.405Z,95663.94
2022-09-27T11:21:15.278Z,95667.41
2022-09-27T11:24:04.117Z,95678.34
2022-09-27T11:26:45.559Z,95711.72
2022-09-27T11:29:26.885Z,95718.41
2022-09-27T11:32:35.015Z,95694.06
2022-09-27T11:35:36.962Z,95690.56
2022-09-27T11:38:40.906Z,95693.31
2022-09-27T11:41:30.229Z,95654.13
2022-09-27T11:44:28.861Z,95691.78
2022-09-27T11:47:06.518Z,95725.25
2022-09-27T11:49:56.660Z,95741.72
2022-09-27T11:52:38.836Z,95752.22
2022-09-27T11:55:24.877Z,95749.28
2022-09-27T11:58:04.107Z,95734.44
2022-09-27T12:00:49.352Z,95709.16
2022-09-27T12:03:58.976Z,95681.88
2022-09-27T12:06:40.463Z,95646.13
2022-09-27T12:09:13.489Z,95622.75
2022-09-27T12:11:45.721Z,95652.50
2022-09-27T12:14:24.710Z,95643.94
2022-09-27T12:16:58.858Z,95633.81
2022-09-27T12:19:32.386Z,95598.47
2022-09-27T12:22:08.247Z,95608.00
2022-09-27T12:24:41.460Z,95614.63
2022-09-27T12:27:37.896Z,95645.94
2022-09-27T12:30:12.836Z,95633.94
2022-09-27T12:32:50.101Z,95675.91
2022-09-27T12:35:20.875Z,95694.53
2022-09-27T12:37:53.893Z,95714.31
2022-09-27T12:40:27.987Z,95722.66
2022-09-27T12:43:03.377Z,95705.59
2022-09-27T12:45:55.999Z,95705.28
2022-09-27T12:48:36.734Z,95708.19
2022-09-27T12:51:11.599Z,95706.53
2022-09-27T12:53:56.620Z,95735.38
2022-09-27T12:56:42.709Z,95728.66
2022-09-27T12:59:29.401Z,95733.22
2022-09-27T13:03:11.224Z,95739.44
2022-09-27T13:06:00.420Z,95749.81
2022-09-27T13:08:54.411Z,95741.66
2022-09-27T13:11:39.525Z,95738.13
2022-09-27T13:14:21.029Z,95736.88
2022-09-27T13:16:51.470Z,95734.91
2022-09-27T13:19:45.809Z,95741.75
2022-09-27T13:22:44.215Z,95725.94
2022-09-27T13:25:55.411Z,95709.84
2022-09-27T13:29:00.756Z,95715.22
2022-09-27T13:32:14.944Z,95691.00
2022-09-27T13:35:20.536Z,95692.72
2022-09-27T13:37:59.042Z,95672.69
2022-09-27T13:40:34.043Z,95645.09
2022-09-27T13:43:45.194Z,95672.13
2022-09-27T13:46:36.254Z,95726.28
2022-09-27T13:49:21.759Z,95750.53
2022-09-27T13:52:21.952Z,95761.69
2022-09-27T13:55:05.497Z,95789.03
2022-09-27T13:57:56.817Z,95808.84
2022-09-27T14:00:33.258Z,95813.97
2022-09-27T14:03:23.155Z,95821.78
2022-09-27T14:06:17.370Z,95834.22
2022-09-27T14:08:49.462Z,95860.00
2022-09-27T14:11:23.194Z,95853.22
2022-09-27T14:13:53.263Z,95862.66
2022-09-27T14:16:30.669Z,95925.34
2022-09-27T14:18:59.786Z,95966.84
2022-09-27T14:21:46.362Z,95992.59
2022-09-27T14:24:31.005Z,95990.34
2022-09-27T14:27:23.665Z,95971.25
2022-09-27T14:30:00.955Z,95972.50
2022-09-27T14:32:35.252Z,95967.72
2022-09-27T14:35:36.951Z,95952.41
2022-09-27T14:38:35.927Z,95918.91
2022-09-27T14:41:46.071Z,95911.38
2022-09-27T14:44:20.445Z,95920.59
2022-09-27T14:47:09.659Z,95954.22
2022-09-27T14:49:47.116Z,95939.78
2022-09-27T14:52:20.824Z,95958.06
2022-09-27T14:55:00.384Z,95963.28
2022-09-27T14:57:50.807Z,95974.03
2022-09-27T15:00:24.714Z,95973.31
2022-09-27T15:02:59.127Z,96015.81
2022-09-27T15:05:36.846Z,96015.00
2022-09-27T15:08:17.509Z,96020.09
2022-09-27T15:10:46.142Z,96020.53
2022-09-27T15:13:19.722Z,96026.75
2022-09-27T15:15:49.836Z,96030.06
2022-09-27T15:18:42.911Z,96026.53
2022-09-27T15:21:47.828Z,96041.97
2022-09-27T15:24:38.164Z,96032.34
2022-09-27T15:32:01.389Z,96067.84
2022-09-27T15:34:51.140Z,96087.00
2022-09-27T15:37:57.682Z,96078.31
2022-09-27T15:41:07.263Z,96044.00
2022-09-27T15:43:48.055Z,96037.19
2022-09-27T15:52:01.053Z,96041.78
2022-09-27T15:54:33.309Z,96047.94
2022-09-27T15:57:04.670Z,96026.25
2022-09-27T15:59:35.115Z,96009.28
2022-09-27T16:02:08.360Z,95992.31
2022-09-27T16:04:39.258Z,95963.69
2022-09-27T16:07:09.913Z,95919.75
2022-09-27T16:09:39.746Z,95880.59
2022-09-27T16:12:07.860Z,95867.97
2022-09-27T16:14:35.785Z,95852.66
2022-09-27T16:17:03.792Z,95842.53
2022-09-27T16:19:31.799Z,95816.19
2022-09-27T16:22:03.414Z,95820.72
2022-09-27T16:24:32.236Z,95810.38
2022-09-27T16:27:01.789Z,95828.38
2022-09-27T16:29:32.921Z,95816.59
2022-09-27T16:32:01.699Z,95837.94
2022-09-27T16:34:29.727Z,95860.50
2022-09-27T16:37:01.663Z,95888.91
2022-09-27T16:39:32.250Z,95912.09
2022-09-27T16:42:05.032Z,95943.81
2022-09-27T16:44:45.281Z,95960.81
2022-09-27T16:47:13.448Z,95977.16
2022-09-27T16:50:01.981Z,96004.09
2022-09-27T16:52:38.580Z,96004.31
2022-09-27T16:55:07.832Z,96017.53
2022-09-27T16:57:38.342Z,96025.63
2022-09-27T17:00:07.977Z,96008.84
2022-09-27T17:02:36.120Z,96010.09
2022-09-27T17:05:04.312Z,95983.59
2022-09-27T17:07:32.499Z,95958.31
2022-09-27T17:10:00.525Z,95956.66
2022-09-27T17:12:28.659Z,95938.03
2022-09-27T17:14:58.299Z,95938.44
2022-09-27T17:17:26.853Z,95905.91
2022-09-27T17:19:54.814Z,95906.91
2022-09-27T17:22:22.894Z,95904.88
2022-09-27T17:24:51.290Z,95915.28
2022-09-27T17:27:22.877Z,95907.38
2022-09-27T17:29:53.203Z,95865.09
2022-09-27T17:32:24.304Z,95873.34
2022-09-27T17:34:52.388Z,95883.50
2022-09-27T17:37:20.697Z,95880.19
2022-09-27T17:39:48.813Z,95892.88
2022-09-27T17:42:18.931Z,95877.09
2022-09-27T17:44:47.597Z,95859.72
2022-09-27T17:47:37.402Z,95875.28
2022-09-27T17:50:25.811Z,95862.22
2022-09-27T17:52:54.430Z,95885.84
2022-09-27T17:55:28.746Z,95889.16
2022-09-27T17:59:20.593Z,95888.75
2022-09-27T18:06:44.319Z,95874.25
2022-09-27T18:09:42.015Z,95880.28
2022-09-27T18:12:47.648Z,95899.13
2022-09-27T18:15:40.068Z,95904.69
2022-09-27T18:18:11.309Z,95911.31
2022-09-27T18:20:39.909Z,95909.03
2022-09-27T18:23:37.305Z,95955.84
2022-09-27T18:26:19.435Z,95964.53
2022-09-27T18:29:09.091Z,95983.81
2022-09-27T18:31:39.620Z,95990.22
2022-09-27T18:34:33.713Z,96000.97
2022-09-27T18:37:02.086Z,96045.28
2022-09-27T18:39:32.391Z,96044.03
2022-09-27T18:42:02.049Z,96056.69
2022-09-27T18:44:33.464Z,96068.06
2022-09-27T18:47:05.862Z,96085.66
2022-09-27T18:53:15.570Z,96102.00
2022-09-27T18:55:56.410Z,96152.31
2022-09-27T18:58:39.078Z,96186.47
2022-09-27T19:01:17.701Z,96223.09
2022-09-27T19:03:46.120Z,96281.50
2022-09-27T19:06:44.980Z,96325.78
2022-09-27T19:10:46.680Z,96388.47
2022-09-27T19:13:50.958Z,96471.88
2022-09-27T19:17:42.259Z,96579.25
2022-09-27T19:20:12.287Z,96680.75
2022-09-27T19:22:40.447Z,96753.53
2022-09-27T19:25:38.132Z,96824.34
2022-09-27T19:28:09.060Z,96915.34
2022-09-27T19:31:17.693Z,96996.84
2022-09-27T19:33:56.146Z,97098.31
2022-09-27T19:36:38.445Z,97199.78
2022-09-27T19:39:10.027Z,97290.44
2022-09-27T19:41:38.735Z,97376.41
2022-09-27T19:44:09.761Z,97458.31
2022-09-27T19:46:39.305Z,97544.78
2022-09-27T19:49:07.470Z,97629.19
2022-09-27T19:51:37.777Z,97718.00
2022-09-27T19:54:06.377Z,97804.31
2022-09-27T19:56:35.022Z,97889.81
2022-09-27T19:59:31.231Z,97972.25
2022-09-27T20:02:07.675Z,98078.06
2022-09-27T20:04:53.980Z,98150.06
2022-09-27T20:07:59.925Z,98236.53
2022-09-27T20:10:38.042Z,98345.31
2022-09-27T20:16:10.553Z,98496.50
2022-09-27T20:18:41.234Z,98568.34
2022-09-27T20:21:09.462Z,98610.41
2022-09-27T20:23:39.299Z,98668.66
2022-09-27T20:26:09.610Z,98739.38
2022-09-27T20:28:43.040Z,98811.34
2022-09-27T20:31:13.080Z,98859.09
2022-09-27T20:33:46.497Z,98937.72
2022-09-27T20:36:16.243Z,98990.84
2022-09-27T20:39:02.017Z,99058.00
2022-09-27T20:41:31.861Z,99120.53
2022-09-27T20:44:01.826Z,99171.22
2022-09-27T20:46:29.908Z,99216.97
2022-09-27T20:48:59.774Z,99280.72
2022-09-27T20:51:28.902Z,99353.28
2022-09-27T20:53:58.980Z,99400.41
2022-09-27T20:56:30.006Z,99410.81
2022-09-27T20:58:59.654Z,99390.09
2022-09-27T21:01:29.228Z,99383.34
2022-09-27T21:03:58.451Z,99353.50
2022-09-27T21:06:28.739Z,99334.06
2022-09-27T21:08:59.346Z,99284.88
2022-09-27T21:11:28.041Z,99179.06
2022-09-27T21:13:56.199Z,99109.34
2022-09-27T21:16:26.254Z,99084.38
2022-09-27T21:18:57.205Z,99073.63
2022-09-27T21:21:26.187Z,99079.88
2022-09-27T21:23:56.555Z,99124.03
2022-09-27T21:26:27.593Z,99157.78
2022-09-27T21:28:57.291Z,99184.47
2022-09-27T21:31:26.907Z,99210.41
2022-09-27T21:33:58.627Z,99260.78
2022-09-27T21:36:28.381Z,99314.50
2022-09-27T21:38:57.289Z,99340.28
2022-09-27T21:41:27.973Z,99401.69
2022-09-27T21:43:56.414Z,99398.69
2022-09-27T21:46:25.714Z,99429.06
2022-09-27T21:48:55.986Z,99466.41
2022-09-27T21:51:26.125Z,99471.59
2022-09-27T21:53:55.970Z,99494.13
2022-09-27T21:56:26.803Z,99510.34
2022-09-27T21:58:54.898Z,99533.50
2022-09-27T22:01:24.554Z,99567.41
2022-09-27T22:03:55.622Z,99543.97
2022-09-27T22:06:25.489Z,99528.28
2022-09-27T22:08:54.419Z,99533.63
2022-09-27T22:11:24.285Z,99507.13
2022-09-27T22:13:54.196Z,99532.53
2022-09-27T22:16:23.380Z,99534.47
2022-09-27T22:18:53.525Z,99516.06
2022-09-27T22:21:24.010Z,99544.38
2022-09-27T22:23:55.417Z,99533.22
2022-09-27T22:26:24.920Z,99537.84
2022-09-27T22:28:54.533Z,99530.97
2022-09-27T22:31:23.315Z,99565.69
2022-09-27T22:33:52.377Z,99558.94
2022-09-27T22:36:20.463Z,99573.31
2022-09-27T22:38:49.461Z,99588.72
2022-09-27T22:41:17.552Z,99589.91
2022-09-27T22:43:45.748Z,99593.34
2022-09-27T22:46:15.241Z,99615.41
2022-09-27T22:48:43.489Z,99624.56
2022-09-27T22:51:11.908Z,99625.97
2022-09-27T22:53:40.051Z,99605.97
2022-09-27T22:56:10.080Z,99594.78
2022-09-27T22:58:38.855Z,99580.88
2022-09-27T23:01:11.633Z,99585.19
2022-09-27T23:03:41.236Z,99582.84
2022-09-27T23:06:09.436Z,99590.38
2022-09-27T23:08:38.609Z,99578.84
2022-09-27T23:11:08.220Z,99610.69
2022-09-27T23:13:38.688Z,99636.63
2022-09-27T23:16:09.263Z,99606.38
2022-09-27T23:18:38.221Z,99609.00
2022-09-27T23:21:09.391Z,99611.88
2022-09-27T23:23:40.692Z,99615.03
2022-09-27T23:26:10.621Z,99627.28
2022-09-27T23:28:39.293Z,99626.84
2022-09-27T23:31:09.148Z,99620.94
2022-09-27T23:33:37.986Z,99609.00
2022-09-27T23:36:10.298Z,99590.06
2022-09-27T23:38:40.305Z,99577.25
2022-09-27T23:41:09.329Z,99554.47
2022-09-27T23:43:40.098Z,99518.41
2022-09-27T23:46:10.809Z,99501.31
2022-09-27T23:48:39.941Z,99471.50
2022-09-27T23:51:13.215Z,99436.09
2022-09-27T23:53:41.669Z,99419.66
2022-09-27T23:56:13.105Z,99378.81
2022-09-27T23:58:42.732Z,99347.28
